Time;durP1;ratioP1;P1;durP2;ratioP2;P2;SDS_P1;SDS_P2;PMS_P1;PMS_P2;Temp;Humidity;BMP_temperature;BMP_pressure;BME280_temperature;BME280_humidity;BME280_pressure;Samples;Min_cycle;Max_cycle;Signal;HPM_P1;HPM_P2
2021/10/07 00:00:36;;;;;;;3.03;1.33;;;;;;;;;;5011671;28;20032;-66
2021/10/07 00:03:21;;;;;;;2.03;1.40;;;;;;;;;;5004313;28;20056;-66
2021/10/07 00:06:04;;;;;;;3.42;1.65;;;;;;;;;;5002552;28;20036;-65
2021/10/07 00:08:49;;;;;;;3.92;1.90;;;;;;;;;;5003537;28;20117;-65
2021/10/07 00:11:34;;;;;;;2.35;1.38;;;;;;;;;;4995080;28;20029;-66
2021/10/07 00:14:18;;;;;;;3.50;1.45;;;;;;;;;;5003916;28;20095;-66
2021/10/07 00:17:02;;;;;;;2.92;1.50;;;;;;;;;;4998589;28;20535;-69
2021/10/07 00:19:46;;;;;;;4.38;1.65;;;;;;;;;;5008504;28;20153;-73
2021/10/07 00:22:30;;;;;;;3.65;1.27;;;;;;;;;;5004320;28;20028;-74
2021/10/07 00:25:14;;;;;;;1.67;1.13;;;;;;;;;;5003288;28;20120;-70
2021/10/07 00:28:07;;;;;;;2.72;1.20;;;;;;;;;;5001766;28;20053;-72
2021/10/07 00:30:56;;;;;;;3.90;1.40;;;;;;;;;;5004362;28;20441;-71
2021/10/07 00:39:42;;;;;;;2.55;1.20;;;;;;;;;;5004590;28;20072;-62
2021/10/07 00:42:26;;;;;;;4.00;1.20;;;;;;;;;;4998007;28;20084;-63
2021/10/07 00:45:10;;;;;;;2.22;1.30;;;;;;;;;;4996157;28;20076;-65
2021/10/07 00:47:54;;;;;;;3.35;1.23;;;;;;;;;;5002808;28;20045;-65
2021/10/07 00:50:38;;;;;;;4.15;1.50;;;;;;;;;;4999956;28;20028;-64
2021/10/07 00:53:22;;;;;;;1.83;1.10;;;;;;;;;;4994818;28;20029;-63
2021/10/07 00:56:06;;;;;;;3.95;1.38;;;;;;;;;;5003242;28;20037;-64
2021/10/07 00:58:50;;;;;;;4.15;1.50;;;;;;;;;;4997744;28;20076;-64
2021/10/07 01:01:33;;;;;;;2.70;1.40;;;;;;;;;;5007186;28;20119;-64
2021/10/07 01:04:17;;;;;;;2.28;1.20;;;;;;;;;;5006173;28;20064;-62
2021/10/07 01:07:05;;;;;;;2.83;1.27;;;;;;;;;;5010906;28;20055;-64
2021/10/07 01:09:49;;;;;;;7.05;1.80;;;;;;;;;;5002352;28;20361;-63
2021/10/07 01:12:32;;;;;;;5.05;1.60;;;;;;;;;;5011483;28;20053;-63
2021/10/07 01:15:18;;;;;;;2.30;1.25;;;;;;;;;;4992903;28;20096;-69
2021/10/07 01:18:02;;;;;;;1.98;1.17;;;;;;;;;;5001350;28;20045;-68
2021/10/07 01:20:46;;;;;;;2.72;1.30;;;;;;;;;;5003181;28;20072;-68
2021/10/07 01:23:30;;;;;;;5.07;1.70;;;;;;;;;;4996440;28;20076;-70
2021/10/07 01:26:18;;;;;;;5.82;1.70;;;;;;;;;;4998959;28;20040;-70
2021/10/07 01:29:02;;;;;;;6.68;1.50;;;;;;;;;;5002394;28;20095;-68
2021/10/07 01:31:46;;;;;;;2.55;1.20;;;;;;;;;;5004935;28;20041;-67
2021/10/07 01:34:30;;;;;;;4.13;1.52;;;;;;;;;;5007052;28;20461;-68
2021/10/07 01:37:14;;;;;;;7.35;2.63;;;;;;;;;;5003843;28;20040;-68
2021/10/07 01:39:58;;;;;;;4.30;1.40;;;;;;;;;;4997356;28;20041;-68
2021/10/07 01:42:42;;;;;;;3.42;1.50;;;;;;;;;;5010799;28;20036;-69
2021/10/07 01:45:26;;;;;;;2.97;1.30;;;;;;;;;;5003329;28;20033;-68
2021/10/07 01:48:10;;;;;;;5.80;1.40;;;;;;;;;;4997098;28;20167;-63
2021/10/07 01:50:54;;;;;;;5.40;1.38;;;;;;;;;;5009045;28;20048;-68
2021/10/07 01:53:38;;;;;;;2.75;1.23;;;;;;;;;;4997429;28;20397;-67
2021/10/07 01:56:22;;;;;;;5.15;1.30;;;;;;;;;;4993947;28;20032;-69
2021/10/07 01:59:06;;;;;;;4.85;1.88;;;;;;;;;;5004927;28;20130;-69
2021/10/07 02:01:50;;;;;;;3.22;1.30;;;;;;;;;;5001784;28;20117;-70
2021/10/07 02:04:37;;;;;;;5.30;1.95;;;;;;;;;;5005303;28;20084;-67
2021/10/07 02:07:21;;;;;;;2.58;1.80;;;;;;;;;;4998404;28;20111;-64
2021/10/07 02:10:08;;;;;;;3.25;1.27;;;;;;;;;;5001306;28;20049;-72
2021/10/07 02:12:52;;;;;;;3.38;1.83;;;;;;;;;;5002744;28;20188;-71
2021/10/07 02:15:36;;;;;;;2.88;1.40;;;;;;;;;;5004959;28;20049;-72
2021/10/07 02:18:20;;;;;;;2.92;1.30;;;;;;;;;;4992783;28;20049;-72
2021/10/07 02:21:04;;;;;;;1.83;1.30;;;;;;;;;;4998010;28;20125;-71
2021/10/07 02:23:48;;;;;;;2.90;1.10;;;;;;;;;;4987389;28;20045;-72
2021/10/07 02:26:32;;;;;;;2.83;1.00;;;;;;;;;;4996086;28;20030;-62
2021/10/07 02:29:16;;;;;;;2.25;1.25;;;;;;;;;;5000494;28;20040;-63
2021/10/07 02:32:00;;;;;;;4.80;1.50;;;;;;;;;;4999079;28;20052;-63
2021/10/07 02:34:44;;;;;;;2.58;1.95;;;;;;;;;;5001116;28;20053;-63
2021/10/07 02:37:28;;;;;;;4.50;1.85;;;;;;;;;;5002755;28;20038;-63
2021/10/07 02:40:14;;;;;;;4.32;1.30;;;;;;;;;;5001294;28;20040;-65
2021/10/07 02:42:58;;;;;;;4.03;1.25;;;;;;;;;;4997232;28;20045;-71
2021/10/07 02:45:42;;;;;;;3.22;1.20;;;;;;;;;;4999771;28;20028;-64
2021/10/07 02:48:26;;;;;;;5.03;1.63;;;;;;;;;;4996341;28;20553;-65
2021/10/07 02:51:10;;;;;;;2.88;1.20;;;;;;;;;;5006731;28;20053;-65
2021/10/07 02:53:54;;;;;;;5.45;1.63;;;;;;;;;;4994999;28;20037;-67
2021/10/07 02:56:38;;;;;;;2.85;1.30;;;;;;;;;;5000323;28;20029;-64
2021/10/07 02:59:22;;;;;;;4.90;1.48;;;;;;;;;;4996140;28;20041;-65
2021/10/07 03:02:06;;;;;;;3.15;1.42;;;;;;;;;;4996940;28;20543;-64
2021/10/07 03:04:52;;;;;;;2.50;1.20;;;;;;;;;;4997199;28;20096;-65
2021/10/07 03:07:36;;;;;;;3.22;2.05;;;;;;;;;;4992091;28;20526;-66
2021/10/07 03:10:20;;;;;;;1.52;1.15;;;;;;;;;;5001128;28;20036;-66
2021/10/07 03:13:04;;;;;;;2.83;1.40;;;;;;;;;;4999452;28;20210;-66
2021/10/07 03:15:48;;;;;;;3.22;1.40;;;;;;;;;;5003394;28;20064;-65
2021/10/07 03:18:32;;;;;;;3.97;1.58;;;;;;;;;;5005693;28;20044;-65
2021/10/07 03:21:16;;;;;;;2.35;1.10;;;;;;;;;;5004419;28;20041;-69
2021/10/07 03:24:00;;;;;;;3.30;1.20;;;;;;;;;;5001945;28;20045;-71
2021/10/07 03:26:44;;;;;;;1.67;1.33;;;;;;;;;;5006258;28;20061;-72
2021/10/07 03:29:28;;;;;;;5.00;2.20;;;;;;;;;;5003553;28;20048;-72
2021/10/07 03:32:12;;;;;;;3.67;1.10;;;;;;;;;;5006715;28;20033;-75
2021/10/07 03:34:55;;;;;;;1.23;1.05;;;;;;;;;;4995336;28;20084;-74
2021/10/07 03:37:39;;;;;;;4.15;1.40;;;;;;;;;;5003781;28;20041;-63
2021/10/07 03:40:23;;;;;;;2.47;1.30;;;;;;;;;;5007643;28;20036;-63
2021/10/07 03:43:07;;;;;;;2.05;1.48;;;;;;;;;;5008824;28;20551;-67
2021/10/07 03:45:51;;;;;;;3.00;1.25;;;;;;;;;;5002547;28;20125;-68
2021/10/07 03:48:35;;;;;;;3.72;1.60;;;;;;;;;;5005046;28;20077;-69
2021/10/07 03:51:19;;;;;;;4.20;1.50;;;;;;;;;;5001163;28;20113;-67
2021/10/07 03:54:03;;;;;;;3.55;1.35;;;;;;;;;;5004473;28;20037;-67
2021/10/07 03:56:47;;;;;;;2.03;1.00;;;;;;;;;;5006548;28;20047;-69
2021/10/07 03:59:31;;;;;;;3.20;1.60;;;;;;;;;;5000433;28;20112;-71
2021/10/07 04:02:15;;;;;;;2.05;1.13;;;;;;;;;;5008041;28;20033;-70
2021/10/07 04:04:59;;;;;;;2.63;1.40;;;;;;;;;;5007649;28;20495;-71
2021/10/07 04:07:43;;;;;;;6.50;2.33;;;;;;;;;;4999790;28;20172;-71
2021/10/07 04:10:27;;;;;;;2.75;1.30;;;;;;;;;;4998047;28;20068;-71
2021/10/07 04:13:10;;;;;;;3.05;1.13;;;;;;;;;;5005565;28;20107;-70
2021/10/07 04:15:54;;;;;;;3.95;1.73;;;;;;;;;;4998952;28;20656;-62
2021/10/07 04:18:40;;;;;;;2.22;1.08;;;;;;;;;;5001932;28;20056;-62
2021/10/07 04:21:24;;;;;;;3.72;1.48;;;;;;;;;;4998820;28;20065;-62
2021/10/07 04:24:08;;;;;;;2.60;1.20;;;;;;;;;;5002709;28;20045;-62
2021/10/07 04:26:52;;;;;;;6.78;1.48;;;;;;;;;;5007769;28;20221;-63
2021/10/07 04:29:36;;;;;;;1.50;1.38;;;;;;;;;;5002394;28;20603;-63
2021/10/07 04:32:20;;;;;;;5.22;2.05;;;;;;;;;;5004807;28;20117;-62
2021/10/07 04:35:05;;;;;;;7.13;1.75;;;;;;;;;;5002049;28;20060;-61
2021/10/07 04:37:49;;;;;;;6.82;3.55;;;;;;;;;;4995999;28;20040;-63
2021/10/07 04:40:33;;;;;;;3.65;1.38;;;;;;;;;;5008059;28;20036;-65
2021/10/07 04:43:18;;;;;;;4.85;1.88;;;;;;;;;;5003369;28;20079;-65
2021/10/07 04:46:02;;;;;;;2.80;1.25;;;;;;;;;;4984213;28;20029;-64
2021/10/07 04:48:46;;;;;;;4.72;2.20;;;;;;;;;;5001074;28;20093;-63
2021/10/07 04:51:30;;;;;;;4.80;1.35;;;;;;;;;;5005958;28;20029;-65
2021/10/07 04:54:14;;;;;;;4.32;1.58;;;;;;;;;;5008745;28;20044;-69
2021/10/07 04:56:58;;;;;;;5.88;1.42;;;;;;;;;;4996774;28;20029;-72
2021/10/07 04:59:42;;;;;;;3.92;1.83;;;;;;;;;;5006724;28;20076;-73
2021/10/07 05:02:25;;;;;;;4.60;1.45;;;;;;;;;;5002379;28;20111;-72
2021/10/07 05:05:10;;;;;;;2.75;1.42;;;;;;;;;;5003102;28;20045;-69
2021/10/07 05:07:53;;;;;;;2.33;1.40;;;;;;;;;;5007238;28;20156;-70
2021/10/07 05:10:38;;;;;;;11.68;2.25;;;;;;;;;;5004354;28;20412;-68
2021/10/07 05:13:22;;;;;;;3.78;2.40;;;;;;;;;;4997919;28;20077;-74
2021/10/07 05:16:06;;;;;;;1.63;1.35;;;;;;;;;;5003452;28;20092;-73
2021/10/07 05:18:50;;;;;;;2.78;1.70;;;;;;;;;;4993781;28;20100;-74
2021/10/07 05:21:34;;;;;;;3.60;1.40;;;;;;;;;;5005182;28;20032;-76
2021/10/07 05:24:18;;;;;;;5.88;1.50;;;;;;;;;;5010799;28;20237;-73
2021/10/07 05:27:02;;;;;;;4.18;1.30;;;;;;;;;;5001895;28;20042;-73
2021/10/07 05:29:46;;;;;;;4.65;1.88;;;;;;;;;;4996852;28;20516;-65
2021/10/07 05:32:30;;;;;;;3.58;1.67;;;;;;;;;;5008267;28;20628;-71
2021/10/07 05:35:14;;;;;;;4.00;1.20;;;;;;;;;;5003577;28;20581;-69
2021/10/07 05:37:59;;;;;;;2.90;1.63;;;;;;;;;;4991012;28;20041;-69
2021/10/07 05:40:43;;;;;;;2.97;1.60;;;;;;;;;;4998120;28;20496;-69
2021/10/07 05:43:26;;;;;;;2.33;1.35;;;;;;;;;;4999915;28;20032;-70
2021/10/07 05:46:10;;;;;;;7.25;2.35;;;;;;;;;;5002637;28;20044;-69
2021/10/07 05:48:54;;;;;;;10.63;1.70;;;;;;;;;;5009215;28;20072;-64
2021/10/07 05:51:38;;;;;;;3.08;1.50;;;;;;;;;;4996614;28;20054;-70
2021/10/07 05:54:22;;;;;;;3.35;1.60;;;;;;;;;;4998696;28;20048;-70
2021/10/07 05:57:06;;;;;;;3.50;2.13;;;;;;;;;;4998446;28;20033;-70
2021/10/07 05:59:50;;;;;;;3.72;1.60;;;;;;;;;;5001447;28;20566;-72
2021/10/07 06:02:35;;;;;;;4.65;1.80;;;;;;;;;;5005527;28;20048;-69
2021/10/07 06:05:19;;;;;;;3.47;1.42;;;;;;;;;;5005372;28;20044;-71
2021/10/07 06:08:03;;;;;;;3.17;1.70;;;;;;;;;;4992706;28;20065;-70
2021/10/07 06:10:46;;;;;;;5.65;1.50;;;;;;;;;;4991705;28;20507;-69
2021/10/07 06:13:30;;;;;;;2.42;1.50;;;;;;;;;;4992546;28;20065;-69
2021/10/07 06:16:16;;;;;;;3.28;1.77;;;;;;;;;;5005794;28;20079;-70
2021/10/07 06:19:03;;;;;;;3.22;1.85;;;;;;;;;;4995401;28;20132;-69
2021/10/07 06:21:48;;;;;;;6.93;2.67;;;;;;;;;;4999234;28;20093;-70
2021/10/07 06:24:32;;;;;;;9.50;4.43;;;;;;;;;;4997621;28;20028;-63
2021/10/07 06:27:16;;;;;;;3.67;2.17;;;;;;;;;;4975800;28;20033;-68
2021/10/07 06:30:00;;;;;;;4.18;1.70;;;;;;;;;;5013925;28;20566;-69
2021/10/07 06:32:44;;;;;;;6.88;2.03;;;;;;;;;;5001188;28;20033;-69
2021/10/07 06:35:28;;;;;;;6.45;2.70;;;;;;;;;;5001421;28;20030;-70
2021/10/07 06:38:12;;;;;;;4.00;2.58;;;;;;;;;;4994355;28;20061;-71
2021/10/07 06:40:56;;;;;;;6.07;2.65;;;;;;;;;;4995758;28;20061;-69
2021/10/07 06:43:40;;;;;;;4.07;2.10;;;;;;;;;;4990556;28;20069;-66
2021/10/07 06:46:25;;;;;;;6.97;2.08;;;;;;;;;;4991789;28;20591;-69
2021/10/07 06:49:09;;;;;;;5.05;1.80;;;;;;;;;;4993267;28;20172;-69
2021/10/07 06:51:53;;;;;;;6.43;2.35;;;;;;;;;;5001617;28;20075;-68
2021/10/07 06:54:37;;;;;;;6.30;2.33;;;;;;;;;;5005561;28;20091;-69
2021/10/07 06:57:21;;;;;;;8.20;2.22;;;;;;;;;;4998513;28;20633;-69
2021/10/07 07:00:07;;;;;;;5.65;2.05;;;;;;;;;;5003508;28;20158;-70
2021/10/07 07:02:52;;;;;;;5.30;2.50;;;;;;;;;;5003458;28;20053;-61
2021/10/07 07:05:36;;;;;;;5.80;1.90;;;;;;;;;;4996332;28;20069;-64
2021/10/07 07:08:20;;;;;;;3.65;2.03;;;;;;;;;;5000100;28;20683;-64
2021/10/07 07:11:03;;;;;;;3.00;1.65;;;;;;;;;;4995490;28;20037;-62
2021/10/07 07:13:48;;;;;;;14.50;8.32;;;;;;;;;;4999367;28;20119;-65
2021/10/07 07:16:33;;;;;;;7.47;4.28;;;;;;;;;;4996878;28;20083;-65
2021/10/07 07:19:17;;;;;;;7.53;2.83;;;;;;;;;;5011207;28;20113;-70
2021/10/07 07:22:03;;;;;;;5.38;2.90;;;;;;;;;;5005635;28;20096;-62
2021/10/07 07:24:46;;;;;;;6.88;3.25;;;;;;;;;;4995289;28;20097;-63
2021/10/07 07:27:31;;;;;;;7.85;3.55;;;;;;;;;;5006336;28;20096;-66
2021/10/07 07:30:17;;;;;;;6.65;4.00;;;;;;;;;;5004886;28;20045;-63
2021/10/07 07:33:01;;;;;;;6.50;3.90;;;;;;;;;;5004650;28;20525;-61
2021/10/07 07:35:45;;;;;;;7.78;4.50;;;;;;;;;;5005781;28;22328;-64
2021/10/07 07:38:30;;;;;;;5.80;3.55;;;;;;;;;;5004305;28;20048;-64
2021/10/07 07:41:15;;;;;;;8.90;4.75;;;;;;;;;;5000639;28;20033;-62
2021/10/07 07:43:59;;;;;;;7.43;4.22;;;;;;;;;;5000062;28;20369;-62
2021/10/07 07:46:43;;;;;;;8.75;4.47;;;;;;;;;;5004229;28;20032;-63
2021/10/07 07:49:27;;;;;;;8.32;4.10;;;;;;;;;;4993244;28;20136;-62
2021/10/07 07:52:11;;;;;;;7.97;4.32;;;;;;;;;;5008228;28;20170;-61
2021/10/07 07:54:55;;;;;;;44.67;30.80;;;;;;;;;;4999003;28;20083;-63
2021/10/07 07:57:39;;;;;;;21.33;15.85;;;;;;;;;;5000173;28;20088;-61
2021/10/07 08:00:23;;;;;;;13.25;8.13;;;;;;;;;;5004350;28;20036;-68
2021/10/07 08:03:07;;;;;;;7.97;4.88;;;;;;;;;;5002987;28;20037;-71
2021/10/07 08:05:50;;;;;;;7.70;5.07;;;;;;;;;;5008302;28;20037;-69
2021/10/07 08:08:35;;;;;;;8.43;5.53;;;;;;;;;;5001237;28;20034;-68
2021/10/07 08:11:18;;;;;;;8.30;4.55;;;;;;;;;;5010829;28;20080;-68
2021/10/07 08:14:03;;;;;;;8.82;4.88;;;;;;;;;;5007685;28;20129;-62
2021/10/07 08:16:47;;;;;;;7.38;5.00;;;;;;;;;;5001477;28;20040;-64
2021/10/07 08:19:31;;;;;;;10.30;4.85;;;;;;;;;;4999360;28;20124;-64
2021/10/07 08:22:15;;;;;;;7.03;4.45;;;;;;;;;;5002328;28;20040;-63
2021/10/07 08:24:59;;;;;;;9.80;4.88;;;;;;;;;;5002083;28;20364;-63
2021/10/07 08:27:43;;;;;;;8.23;4.75;;;;;;;;;;5004542;28;20102;-67
2021/10/07 08:30:27;;;;;;;9.45;5.00;;;;;;;;;;4997931;28;20045;-67
2021/10/07 08:33:11;;;;;;;21.13;13.18;;;;;;;;;;4990866;28;20032;-64
2021/10/07 08:35:55;;;;;;;30.77;21.88;;;;;;;;;;5001528;28;20037;-70
2021/10/07 08:38:39;;;;;;;8.85;6.70;;;;;;;;;;5007544;28;20060;-69
2021/10/07 08:41:23;;;;;;;8.25;5.28;;;;;;;;;;4989916;28;20032;-67
2021/10/07 08:44:07;;;;;;;8.90;4.80;;;;;;;;;;5007268;28;20041;-68
2021/10/07 08:46:53;;;;;;;7.88;4.78;;;;;;;;;;5003951;28;20038;-66
2021/10/07 08:49:38;;;;;;;9.88;4.47;;;;;;;;;;5008919;28;20037;-66
2021/10/07 08:52:22;;;;;;;8.85;5.13;;;;;;;;;;5005780;28;20040;-63
2021/10/07 08:55:07;;;;;;;34.38;26.90;;;;;;;;;;5000267;28;20388;-64
2021/10/07 08:57:51;;;;;;;20.27;13.15;;;;;;;;;;4976671;28;20552;-63
2021/10/07 09:00:35;;;;;;;9.23;6.07;;;;;;;;;;5004276;28;20033;-63
2021/10/07 09:03:20;;;;;;;7.10;4.35;;;;;;;;;;5007670;28;20432;-63
2021/10/07 09:06:11;;;;;;;5.47;4.30;;;;;;;;;;4992612;28;20087;-64
2021/10/07 09:08:55;;;;;;;7.60;4.80;;;;;;;;;;5001053;28;20057;-68
2021/10/07 09:11:39;;;;;;;11.82;5.43;;;;;;;;;;4995705;28;20576;-64
2021/10/07 09:14:25;;;;;;;9.95;5.10;;;;;;;;;;5008018;28;20197;-70
2021/10/07 09:17:10;;;;;;;7.88;4.75;;;;;;;;;;5000017;28;20088;-69
2021/10/07 09:19:53;;;;;;;10.35;5.22;;;;;;;;;;5000091;28;20385;-71
2021/10/07 09:22:38;;;;;;;8.52;4.85;;;;;;;;;;5000067;28;20030;-70
2021/10/07 09:25:22;;;;;;;6.68;4.68;;;;;;;;;;5003876;28;20175;-70
2021/10/07 09:28:05;;;;;;;8.07;5.13;;;;;;;;;;5001858;28;20409;-62
2021/10/07 09:30:54;;;;;;;8.60;4.60;;;;;;;;;;4995494;28;20342;-64
2021/10/07 09:33:40;;;;;;;7.30;4.38;;;;;;;;;;5006640;28;20488;-63
2021/10/07 09:36:24;;;;;;;7.68;5.40;;;;;;;;;;4995090;28;20053;-61
2021/10/07 09:39:09;;;;;;;8.57;5.22;;;;;;;;;;4995525;28;20038;-62
2021/10/07 09:41:55;;;;;;;7.43;4.63;;;;;;;;;;5008947;28;20072;-62
2021/10/07 09:44:39;;;;;;;7.80;6.03;;;;;;;;;;4999701;28;20084;-62
2021/10/07 09:47:30;;;;;;;12.15;6.30;;;;;;;;;;4999683;28;20025;-64
2021/10/07 09:50:14;;;;;;;12.50;6.75;;;;;;;;;;4996402;28;20084;-63
2021/10/07 09:53:01;;;;;;;12.57;7.63;;;;;;;;;;5000176;28;20036;-63
2021/10/07 09:55:46;;;;;;;9.32;7.10;;;;;;;;;;4996333;28;20060;-63
2021/10/07 09:58:41;;;;;;;8.82;7.32;;;;;;;;;;4980226;28;20088;-64
2021/10/07 10:01:25;;;;;;;9.25;6.80;;;;;;;;;;5000199;28;20038;-66
2021/10/07 10:04:09;;;;;;;9.35;6.50;;;;;;;;;;5005708;28;20057;-67
2021/10/07 10:06:54;;;;;;;21.10;15.60;;;;;;;;;;5002655;28;20053;-63
2021/10/07 10:09:38;;;;;;;27.23;19.58;;;;;;;;;;5007794;28;20061;-74
2021/10/07 10:12:23;;;;;;;12.85;9.18;;;;;;;;;;5003628;28;20064;-72
2021/10/07 10:15:07;;;;;;;12.20;8.00;;;;;;;;;;4995227;28;20270;-72
2021/10/07 10:17:52;;;;;;;12.35;9.02;;;;;;;;;;5001996;28;20033;-72
2021/10/07 10:20:37;;;;;;;11.05;7.68;;;;;;;;;;4993569;28;20499;-73
2021/10/07 10:23:23;;;;;;;12.60;7.88;;;;;;;;;;5002608;28;20024;-62
2021/10/07 10:26:11;;;;;;;78.55;65.63;;;;;;;;;;4999706;28;20072;-71
2021/10/07 10:28:55;;;;;;;14.02;9.38;;;;;;;;;;5005350;28;20301;-71
2021/10/07 10:31:40;;;;;;;11.45;7.88;;;;;;;;;;5004837;28;20101;-70
2021/10/07 10:34:25;;;;;;;10.23;7.07;;;;;;;;;;5000968;28;20037;-70
2021/10/07 10:37:09;;;;;;;10.00;6.97;;;;;;;;;;4995745;28;20033;-69
2021/10/07 10:40:08;;;;;;;11.25;6.60;;;;;;;;;;5008108;28;20036;-70
2021/10/07 10:43:11;;;;;;;8.07;5.75;;;;;;;;;;4997201;28;20066;-64
2021/10/07 10:45:58;;;;;;;10.82;6.05;;;;;;;;;;5001806;28;20712;-65
2021/10/07 10:48:42;;;;;;;12.75;6.88;;;;;;;;;;4985513;28;20032;-66
2021/10/07 10:51:29;;;;;;;10.18;7.07;;;;;;;;;;5007477;28;20360;-64
2021/10/07 10:54:15;;;;;;;9.60;7.40;;;;;;;;;;5004498;28;20029;-64
2021/10/07 10:56:59;;;;;;;10.73;7.70;;;;;;;;;;4999731;28;20539;-66
2021/10/07 10:59:46;;;;;;;8.32;6.90;;;;;;;;;;5010239;28;20054;-62
2021/10/07 11:02:30;;;;;;;11.95;6.93;;;;;;;;;;5007107;28;20036;-63
2021/10/07 11:05:18;;;;;;;14.15;9.82;;;;;;;;;;5001830;28;20069;-61
2021/10/07 11:08:08;;;;;;;13.40;8.75;;;;;;;;;;4997791;28;20538;-60
2021/10/07 11:10:53;;;;;;;11.05;8.05;;;;;;;;;;5001578;28;20061;-61
2021/10/07 11:13:45;;;;;;;12.65;7.47;;;;;;;;;;5005181;28;20472;-64
2021/10/07 11:16:32;;;;;;;13.60;7.60;;;;;;;;;;4998419;28;20040;-61
2021/10/07 11:19:16;;;;;;;12.13;7.80;;;;;;;;;;4999432;28;20045;-65
2021/10/07 11:22:09;;;;;;;11.90;7.80;;;;;;;;;;5004241;28;20041;-62
2021/10/07 11:24:55;;;;;;;10.98;7.65;;;;;;;;;;5014281;28;20078;-63
2021/10/07 11:27:41;;;;;;;12.07;7.05;;;;;;;;;;5003808;28;20065;-65
2021/10/07 11:30:26;;;;;;;14.25;7.68;;;;;;;;;;5007054;28;20036;-64
2021/10/07 11:33:10;;;;;;;10.77;6.78;;;;;;;;;;5004264;28;20076;-65
2021/10/07 11:35:58;;;;;;;11.43;7.22;;;;;;;;;;4999447;28;20029;-66
2021/10/07 11:38:43;;;;;;;12.27;7.07;;;;;;;;;;4995620;28;20097;-68
2021/10/07 11:41:34;;;;;;;13.18;7.60;;;;;;;;;;5003597;28;20388;-68
2021/10/07 11:44:18;;;;;;;11.63;7.13;;;;;;;;;;4993554;28;20536;-69
2021/10/07 11:47:02;;;;;;;9.52;6.30;;;;;;;;;;5004199;28;20079;-68
2021/10/07 11:49:46;;;;;;;11.18;6.30;;;;;;;;;;5006140;28;20052;-68
2021/10/07 11:52:30;;;;;;;8.60;5.63;;;;;;;;;;5002735;28;20126;-66
2021/10/07 11:55:16;;;;;;;6.72;4.43;;;;;;;;;;5009722;28;20080;-64
2021/10/07 11:58:00;;;;;;;9.93;5.35;;;;;;;;;;4999290;28;20241;-68
2021/10/07 12:00:46;;;;;;;7.38;4.68;;;;;;;;;;5010276;28;20096;-71
2021/10/07 12:03:31;;;;;;;9.48;4.80;;;;;;;;;;5007593;28;20102;-70
2021/10/07 12:06:16;;;;;;;6.25;4.32;;;;;;;;;;5010251;28;20045;-69
2021/10/07 12:09:00;;;;;;;9.02;5.90;;;;;;;;;;5010502;28;20060;-70
2021/10/07 12:11:44;;;;;;;6.65;4.32;;;;;;;;;;4999938;28;20519;-70
2021/10/07 12:14:31;;;;;;;6.13;4.15;;;;;;;;;;5002872;28;20033;-62
2021/10/07 12:17:15;;;;;;;6.50;4.18;;;;;;;;;;5003200;28;20096;-65
2021/10/07 12:19:59;;;;;;;8.63;4.40;;;;;;;;;;4997412;28;20091;-64
2021/10/07 12:22:43;;;;;;;8.70;4.88;;;;;;;;;;5005217;28;20164;-65
2021/10/07 12:25:27;;;;;;;6.88;3.90;;;;;;;;;;4998375;28;20073;-64
2021/10/07 12:28:15;;;;;;;7.93;3.92;;;;;;;;;;5012030;28;20044;-65
2021/10/07 12:31:02;;;;;;;7.53;4.55;;;;;;;;;;5003693;28;20088;-64
2021/10/07 12:33:52;;;;;;;6.38;4.30;;;;;;;;;;5003461;28;20476;-69
2021/10/07 12:36:39;;;;;;;8.05;4.28;;;;;;;;;;4993847;28;20358;-62
2021/10/07 12:39:29;;;;;;;4.95;3.40;;;;;;;;;;5000645;28;20116;-62
2021/10/07 12:42:17;;;;;;;5.78;3.20;;;;;;;;;;4998103;28;20111;-61
2021/10/07 12:45:03;;;;;;;5.28;3.33;;;;;;;;;;5005664;28;20044;-61
2021/10/07 12:47:57;;;;;;;6.63;3.85;;;;;;;;;;5003154;28;20037;-63
2021/10/07 12:50:41;;;;;;;6.65;3.67;;;;;;;;;;4993007;28;20544;-63
2021/10/07 12:53:35;;;;;;;5.28;2.90;;;;;;;;;;5005676;28;20044;-71
2021/10/07 12:56:25;;;;;;;6.05;3.40;;;;;;;;;;4992160;28;20036;-60
2021/10/07 12:59:08;;;;;;;6.93;4.10;;;;;;;;;;5010469;28;20044;-61
2021/10/07 13:01:52;;;;;;;4.88;3.33;;;;;;;;;;4999285;28;20060;-61
2021/10/07 13:04:43;;;;;;;6.35;4.55;;;;;;;;;;5006273;28;20118;-61
2021/10/07 13:07:27;;;;;;;15.40;11.20;;;;;;;;;;5000517;28;20099;-68
2021/10/07 13:10:12;;;;;;;11.63;7.95;;;;;;;;;;5000608;28;20377;-60
2021/10/07 13:12:55;;;;;;;6.93;3.90;;;;;;;;;;4998290;28;20069;-64
2021/10/07 13:15:40;;;;;;;7.53;4.05;;;;;;;;;;5007079;28;20025;-65
2021/10/07 13:18:24;;;;;;;8.32;4.57;;;;;;;;;;4994960;28;20045;-65
2021/10/07 13:21:08;;;;;;;6.35;4.00;;;;;;;;;;4998833;28;20069;-64
2021/10/07 13:23:53;;;;;;;7.10;3.22;;;;;;;;;;5002918;28;20607;-64
2021/10/07 13:26:46;;;;;;;8.48;3.97;;;;;;;;;;5004883;28;20228;-62
2021/10/07 13:29:30;;;;;;;7.95;3.60;;;;;;;;;;4993104;28;20037;-61
2021/10/07 13:32:16;;;;;;;5.63;3.80;;;;;;;;;;5006295;28;20088;-62
2021/10/07 13:35:00;;;;;;;6.60;3.80;;;;;;;;;;5002300;28;20036;-62
2021/10/07 13:37:49;;;;;;;4.55;3.30;;;;;;;;;;5000591;28;20109;-61
2021/10/07 13:40:33;;;;;;;5.57;3.08;;;;;;;;;;5000541;28;20038;-62
2021/10/07 13:43:17;;;;;;;5.43;3.40;;;;;;;;;;4995546;28;20051;-61
2021/10/07 13:46:01;;;;;;;6.35;4.40;;;;;;;;;;4996112;28;20033;-68
2021/10/07 13:48:45;;;;;;;6.35;3.33;;;;;;;;;;4999457;28;20061;-66
2021/10/07 13:51:29;;;;;;;5.05;3.58;;;;;;;;;;5003689;28;20092;-67
2021/10/07 13:54:13;;;;;;;6.55;3.35;;;;;;;;;;5001688;28;20053;-65
2021/10/07 13:56:57;;;;;;;7.18;3.53;;;;;;;;;;5007611;28;20053;-69
2021/10/07 13:59:41;;;;;;;8.75;3.65;;;;;;;;;;4992757;28;20036;-68
2021/10/07 14:02:25;;;;;;;8.30;4.97;;;;;;;;;;5007960;28;20020;-65
2021/10/07 14:05:09;;;;;;;7.55;5.25;;;;;;;;;;4995861;28;20085;-63
2021/10/07 14:07:52;;;;;;;5.88;3.28;;;;;;;;;;5006389;28;20061;-61
2021/10/07 14:10:37;;;;;;;5.57;3.40;;;;;;;;;;4999860;28;20088;-61
2021/10/07 14:13:20;;;;;;;5.13;3.00;;;;;;;;;;4998958;28;20044;-63
2021/10/07 14:16:04;;;;;;;5.88;3.35;;;;;;;;;;5001828;28;20780;-62
2021/10/07 14:18:48;;;;;;;9.35;2.83;;;;;;;;;;4993430;28;20097;-60
2021/10/07 14:21:32;;;;;;;5.88;2.70;;;;;;;;;;5001747;28;20113;-61
2021/10/07 14:24:16;;;;;;;5.20;2.88;;;;;;;;;;5005379;28;20033;-63
2021/10/07 14:27:01;;;;;;;5.68;2.90;;;;;;;;;;5004478;28;20091;-63
2021/10/07 14:29:46;;;;;;;7.90;3.03;;;;;;;;;;5006480;28;20036;-61
2021/10/07 14:32:30;;;;;;;4.70;2.60;;;;;;;;;;5002977;28;20060;-62
2021/10/07 14:35:14;;;;;;;5.00;2.83;;;;;;;;;;5003581;28;20041;-63
2021/10/07 14:37:58;;;;;;;6.90;3.60;;;;;;;;;;5007564;28;20071;-64
2021/10/07 14:40:42;;;;;;;8.20;6.05;;;;;;;;;;5003876;28;20444;-64
2021/10/07 14:43:26;;;;;;;6.75;4.03;;;;;;;;;;5003735;28;20397;-63
2021/10/07 14:46:10;;;;;;;8.43;3.30;;;;;;;;;;5001199;28;20099;-65
2021/10/07 14:48:54;;;;;;;6.40;3.38;;;;;;;;;;4999025;28;20029;-64
2021/10/07 14:51:38;;;;;;;3.97;2.15;;;;;;;;;;5004968;28;20036;-64
2021/10/07 14:54:22;;;;;;;4.05;2.20;;;;;;;;;;5006366;28;20037;-66
2021/10/07 14:57:06;;;;;;;7.05;2.45;;;;;;;;;;4997902;28;20110;-64
2021/10/07 14:59:50;;;;;;;3.22;2.03;;;;;;;;;;4998549;28;20085;-65
2021/10/07 15:02:38;;;;;;;2.67;2.00;;;;;;;;;;5002901;28;20032;-63
2021/10/07 15:05:21;;;;;;;4.70;2.35;;;;;;;;;;5003591;28;20277;-63
2021/10/07 15:08:06;;;;;;;6.18;2.42;;;;;;;;;;5003641;28;20077;-63
2021/10/07 15:10:50;;;;;;;5.03;2.30;;;;;;;;;;4993495;28;20028;-62
2021/10/07 15:13:34;;;;;;;6.32;2.60;;;;;;;;;;4995023;28;20543;-62
2021/10/07 15:16:17;;;;;;;4.07;2.50;;;;;;;;;;5000280;28;20028;-64
2021/10/07 15:19:02;;;;;;;3.75;2.17;;;;;;;;;;5000428;28;20081;-62
2021/10/07 15:21:47;;;;;;;4.22;3.00;;;;;;;;;;4998089;28;20118;-66
2021/10/07 15:24:31;;;;;;;3.15;2.55;;;;;;;;;;5000152;28;20045;-67
2021/10/07 15:27:15;;;;;;;5.97;3.05;;;;;;;;;;5004224;28;20045;-65
2021/10/07 15:29:59;;;;;;;65.97;50.72;;;;;;;;;;5001340;28;20152;-64
2021/10/07 15:32:43;;;;;;;6.95;4.05;;;;;;;;;;5000303;28;20028;-65
2021/10/07 15:35:27;;;;;;;12.52;8.88;;;;;;;;;;5004024;28;20041;-63
2021/10/07 15:38:11;;;;;;;4.32;2.80;;;;;;;;;;5000957;28;20041;-64
2021/10/07 15:40:54;;;;;;;4.03;2.67;;;;;;;;;;5007787;28;20487;-64
2021/10/07 15:43:38;;;;;;;5.13;2.70;;;;;;;;;;4999865;28;20049;-62
2021/10/07 15:46:23;;;;;;;6.18;2.42;;;;;;;;;;5000945;28;20052;-62
2021/10/07 15:49:07;;;;;;;5.00;2.88;;;;;;;;;;5007930;28;20105;-65
2021/10/07 15:51:52;;;;;;;6.97;3.50;;;;;;;;;;5006352;28;20128;-61
2021/10/07 15:54:38;;;;;;;3.38;2.80;;;;;;;;;;5007867;28;20476;-65
2021/10/07 15:57:22;;;;;;;4.43;2.60;;;;;;;;;;5000508;28;20096;-69
2021/10/07 16:00:07;;;;;;;7.28;4.18;;;;;;;;;;5002995;28;20464;-66
2021/10/07 16:02:51;;;;;;;4.32;3.10;;;;;;;;;;5003274;28;20516;-66
2021/10/07 16:05:35;;;;;;;5.78;2.88;;;;;;;;;;5006939;28;20443;-69
2021/10/07 16:08:20;;;;;;;5.88;2.90;;;;;;;;;;5007462;28;20029;-67
2021/10/07 16:11:05;;;;;;;7.63;3.22;;;;;;;;;;5009159;28;20034;-66
2021/10/07 16:13:49;;;;;;;3.72;2.25;;;;;;;;;;5004258;28;20061;-62
2021/10/07 16:16:35;;;;;;;5.30;2.85;;;;;;;;;;5001233;28;20048;-67
2021/10/07 16:19:18;;;;;;;7.30;3.35;;;;;;;;;;5006051;28;20464;-65
2021/10/07 16:22:02;;;;;;;6.78;2.83;;;;;;;;;;5008262;28;20029;-69
2021/10/07 16:24:46;;;;;;;5.10;2.45;;;;;;;;;;5007164;28;20806;-66
2021/10/07 16:27:30;;;;;;;4.50;2.70;;;;;;;;;;5006940;28;20048;-67
2021/10/07 16:30:14;;;;;;;4.35;2.47;;;;;;;;;;5006538;28;20133;-68